createdAt,value
2022-08-03T12:30:31.933Z,315.00
2022-08-03T12:31:31.617Z,315.00
2022-08-03T12:32:31.674Z,315.00
2022-08-03T12:33:31.674Z,315.00
2022-08-03T12:34:31.722Z,315.00
2022-08-03T12:35:31.649Z,315.00
2022-08-03T12:36:31.681Z,315.00
2022-08-03T12:37:32.060Z,315.00
2022-08-03T12:38:31.623Z,315.81
2022-08-03T12:39:31.662Z,0.00
2022-08-03T12:40:31.942Z,0.00
2022-08-03T12:41:31.776Z,360.00
2022-08-03T12:42:31.703Z,180.00
2022-08-03T12:43:37.605Z,180.00
2022-08-03T12:44:31.647Z,180.00
2022-08-03T12:45:31.727Z,180.00
2022-08-03T12:46:31.684Z,180.00
2022-08-03T12:47:31.754Z,180.00
2022-08-03T12:48:31.786Z,180.00
2022-08-03T12:49:31.717Z,180.00
2022-08-03T12:50:31.866Z,180.00
2022-08-03T12:51:32.258Z,180.00
2022-08-03T12:52:31.668Z,180.00
2022-08-03T12:53:31.761Z,180.00
2022-08-03T12:54:31.663Z,180.00
2022-08-03T12:55:31.743Z,180.00
2022-08-03T12:56:31.697Z,180.00
2022-08-03T12:57:31.745Z,180.00
2022-08-03T12:58:31.707Z,180.00
2022-08-03T12:59:35.030Z,180.00
2022-08-03T13:00:31.690Z,180.00
2022-08-03T13:01:34.858Z,180.00
2022-08-03T13:02:34.919Z,180.00
2022-08-03T13:03:38.914Z,180.00
2022-08-03T13:04:34.725Z,180.00
2022-08-03T13:05:34.732Z,180.00
2022-08-03T13:06:34.700Z,180.00
2022-08-03T13:07:34.756Z,180.00
2022-08-03T13:08:34.746Z,180.00
2022-08-03T13:09:34.707Z,180.00
2022-08-03T13:10:34.727Z,180.00
2022-08-03T13:11:53.556Z,180.00
2022-08-03T13:12:34.738Z,180.00
2022-08-03T13:13:34.779Z,180.00
2022-08-03T13:14:34.752Z,180.00
2022-08-03T13:15:38.751Z,180.00
2022-08-03T13:16:34.797Z,180.00
2022-08-03T13:17:34.762Z,180.00
2022-08-03T13:18:34.825Z,180.00
2022-08-03T13:19:34.771Z,180.00
2022-08-03T13:20:34.771Z,180.00
2022-08-03T13:21:34.822Z,180.00
2022-08-03T13:22:34.776Z,180.00
2022-08-03T13:23:34.875Z,180.00
2022-08-03T13:24:34.839Z,180.00
2022-08-03T13:25:34.748Z,180.00
2022-08-03T13:26:34.782Z,180.00
2022-08-03T13:28:03.803Z,180.00
2022-08-03T13:28:35.225Z,180.00
2022-08-03T13:29:34.798Z,180.00
2022-08-03T13:30:34.802Z,180.00
2022-08-03T13:31:34.800Z,180.00
2022-08-03T13:32:34.794Z,180.00
2022-08-03T13:33:34.904Z,180.00
2022-08-03T13:34:34.824Z,180.00
2022-08-03T13:35:34.810Z,180.00
2022-08-03T13:36:59.136Z,180.00
2022-08-03T13:37:34.813Z,180.00
2022-08-03T13:38:34.965Z,180.00
2022-08-03T13:39:34.843Z,180.00
2022-08-03T13:40:41.351Z,180.00
2022-08-03T13:41:34.880Z,180.00
2022-08-03T13:42:34.810Z,180.00
2022-08-03T13:43:34.850Z,180.00
2022-08-03T13:44:34.880Z,180.00
2022-08-03T13:45:34.850Z,180.00
2022-08-03T13:46:34.868Z,180.00
2022-08-03T13:47:34.847Z,180.00
2022-08-03T13:48:34.891Z,180.00
2022-08-03T13:49:34.840Z,180.00
2022-08-03T13:50:37.565Z,180.00
2022-08-03T13:51:34.904Z,180.00
2022-08-03T13:52:34.907Z,180.00
2022-08-03T13:53:34.918Z,180.00
2022-08-03T13:54:34.853Z,180.00
2022-08-03T13:55:34.853Z,180.00
2022-08-03T13:56:34.928Z,180.00
2022-08-03T13:58:11.771Z,180.00
2022-08-03T13:58:35.306Z,180.00
2022-08-03T13:59:34.875Z,180.00
2022-08-03T14:00:34.878Z,180.00
2022-08-03T14:01:54.259Z,180.00
2022-08-03T14:02:34.918Z,180.00
2022-08-03T14:03:34.905Z,180.00
2022-08-03T14:04:34.883Z,180.00
2022-08-03T14:05:34.876Z,180.00
2022-08-03T14:06:34.922Z,0.00
2022-08-03T14:07:34.880Z,0.00
2022-08-03T14:08:35.440Z,0.00
2022-08-03T14:09:34.931Z,0.00
2022-08-03T14:10:34.931Z,0.00
2022-08-03T14:12:07.337Z,0.00
2022-08-03T14:12:34.943Z,0.00
2022-08-03T14:13:34.944Z,0.00
2022-08-03T14:14:35.027Z,0.00
2022-08-03T14:15:38.158Z,0.00
2022-08-03T14:16:34.914Z,0.00
2022-08-03T14:17:42.178Z,0.00
2022-08-03T14:18:34.931Z,0.00
2022-08-03T14:19:52.689Z,0.00
2022-08-03T14:20:37.912Z,0.00
2022-08-03T14:21:34.952Z,0.00
2022-08-03T14:22:35.000Z,0.00
2022-08-03T14:23:35.044Z,0.00
2022-08-03T14:24:35.005Z,0.00
2022-08-03T14:25:44.417Z,0.00
2022-08-03T14:26:35.033Z,0.00
2022-08-03T14:27:35.066Z,0.00
2022-08-03T14:28:35.008Z,0.00
2022-08-03T14:29:35.001Z,0.00
2022-08-03T14:30:35.117Z,0.00
2022-08-03T14:32:11.826Z,0.00
2022-08-03T14:32:35.039Z,36.48
2022-08-03T14:33:35.084Z,45.00
2022-08-03T14:34:35.050Z,45.00
2022-08-03T14:35:34.990Z,45.00
2022-08-03T14:36:35.008Z,45.00
2022-08-03T14:37:35.072Z,45.00
2022-08-03T14:38:34.990Z,45.00
2022-08-03T14:40:00.742Z,45.00
2022-08-03T14:40:34.972Z,45.00
2022-08-03T14:41:34.998Z,45.00
2022-08-03T14:42:34.981Z,45.00
2022-08-03T14:43:34.997Z,45.00
2022-08-03T14:44:35.066Z,45.00
2022-08-03T14:45:35.092Z,45.00
2022-08-03T14:46:34.990Z,45.00
2022-08-03T14:49:02.222Z,45.00
2022-08-03T14:50:31.790Z,45.00
2022-08-03T14:50:32.908Z,45.00
2022-08-03T14:50:42.101Z,45.00
2022-08-03T14:51:51.344Z,45.00
2022-08-03T14:52:35.052Z,45.00
2022-08-03T14:53:35.098Z,45.00
2022-08-03T14:54:35.033Z,45.00
2022-08-03T14:55:38.755Z,45.00
2022-08-03T14:56:35.028Z,45.00
2022-08-03T14:57:35.025Z,45.00
2022-08-03T14:58:35.046Z,45.00
2022-08-03T14:59:56.708Z,45.00
2022-08-03T15:00:35.040Z,45.00
2022-08-03T15:02:03.194Z,45.00
2022-08-03T15:02:35.087Z,45.00
2022-08-03T15:03:35.066Z,45.00
2022-08-03T15:04:35.023Z,45.00
2022-08-03T15:05:35.528Z,45.00
2022-08-03T15:06:35.126Z,45.00
2022-08-03T15:07:35.120Z,45.00
2022-08-03T15:08:35.080Z,45.00
2022-08-03T15:09:35.039Z,45.00
2022-08-03T15:10:40.532Z,45.00
2022-08-03T15:11:35.103Z,45.00
2022-08-03T15:12:35.073Z,45.00
2022-08-03T15:13:35.061Z,45.00
2022-08-03T15:14:35.106Z,45.00
2022-08-03T15:15:35.109Z,45.00
2022-08-03T15:16:35.083Z,45.00
2022-08-03T15:17:35.059Z,45.00
2022-08-03T15:18:35.102Z,45.00
2022-08-03T15:20:01.317Z,45.00
2022-08-03T15:20:43.995Z,45.00
2022-08-03T15:21:46.652Z,45.00
2022-08-03T15:22:35.256Z,45.00
2022-08-03T15:23:35.167Z,45.00
2022-08-03T15:24:35.099Z,45.00
2022-08-03T15:26:04.113Z,45.00
2022-08-03T15:26:40.919Z,45.00
2022-08-03T15:27:35.176Z,45.00
2022-08-03T15:28:37.483Z,45.00
2022-08-03T15:30:05.989Z,45.00
2022-08-03T15:30:35.154Z,45.00
2022-08-03T15:31:35.186Z,45.00
2022-08-03T15:32:35.256Z,45.00
2022-08-03T15:33:35.412Z,45.00
2022-08-03T15:34:35.232Z,45.00
2022-08-03T15:35:35.215Z,45.00
2022-08-03T15:36:35.202Z,45.00
2022-08-03T15:37:35.211Z,45.00
2022-08-03T15:38:36.504Z,45.00
2022-08-03T15:39:35.220Z,45.00
2022-08-03T15:40:35.181Z,45.00
2022-08-03T15:41:35.159Z,45.00
2022-08-03T15:42:35.191Z,45.00
2022-08-03T15:43:35.245Z,45.00
2022-08-03T15:44:35.247Z,45.00
2022-08-03T15:45:36.613Z,45.00
2022-08-03T15:46:35.311Z,45.00
2022-08-03T15:47:35.205Z,2.40
2022-08-03T15:48:35.213Z,0.00
2022-08-03T15:49:35.206Z,257.36
2022-08-03T15:50:35.281Z,225.00
2022-08-03T15:51:35.218Z,225.00
2022-08-03T15:52:35.257Z,225.00
2022-08-03T15:53:35.241Z,225.00
2022-08-03T15:54:35.241Z,225.00
2022-08-03T15:55:35.285Z,225.00
2022-08-03T15:56:35.241Z,225.00
2022-08-03T15:59:04.357Z,225.00
2022-08-03T15:59:04.507Z,225.00
2022-08-03T15:59:35.283Z,225.00
2022-08-03T16:00:35.249Z,225.00
2022-08-03T16:01:35.362Z,225.00
2022-08-03T16:02:35.264Z,225.00
2022-08-03T16:03:35.285Z,225.00
2022-08-03T16:04:35.242Z,225.00
2022-08-03T16:05:35.252Z,225.00
2022-08-03T16:06:36.452Z,225.00
2022-08-03T16:07:35.265Z,225.00
2022-08-03T16:08:35.311Z,225.00
2022-08-03T16:09:43.329Z,225.00
2022-08-03T16:10:35.298Z,225.00
2022-08-03T16:11:35.280Z,225.00
2022-08-03T16:12:35.280Z,225.00
2022-08-03T16:14:13.514Z,225.00
2022-08-03T16:14:46.865Z,225.00
2022-08-03T16:15:38.590Z,225.00
2022-08-03T16:16:35.331Z,225.00
2022-08-03T16:17:35.348Z,225.00
2022-08-03T16:18:35.288Z,225.00
2022-08-03T16:19:35.649Z,225.00
2022-08-03T16:20:35.554Z,225.00
2022-08-03T16:21:38.644Z,225.00
2022-08-03T16:22:35.335Z,225.00
2022-08-03T16:23:35.338Z,225.00
2022-08-03T16:24:35.311Z,225.00
2022-08-03T16:25:35.361Z,225.00
2022-08-03T16:26:35.408Z,225.00
2022-08-03T16:27:37.076Z,225.00
2022-08-03T16:28:35.444Z,225.00
2022-08-03T16:29:35.426Z,225.00
2022-08-03T16:30:35.446Z,225.00
2022-08-03T16:31:35.433Z,225.00
2022-08-03T16:32:35.473Z,225.00
2022-08-03T16:33:35.429Z,225.00
2022-08-03T16:34:37.573Z,225.00
2022-08-03T16:35:35.446Z,225.00
2022-08-03T16:36:35.440Z,225.00
2022-08-03T16:37:38.763Z,225.00
2022-08-03T16:38:35.493Z,285.31
2022-08-03T16:39:35.593Z,0.00
2022-08-03T16:40:35.529Z,0.00
2022-08-03T16:41:53.532Z,0.00
2022-08-03T16:42:35.499Z,0.00
2022-08-03T16:43:35.551Z,0.00
2022-08-03T16:44:35.569Z,0.00
2022-08-03T16:45:35.497Z,0.00
2022-08-03T16:46:35.484Z,0.00
2022-08-03T16:47:35.545Z,0.00
2022-08-03T16:48:35.496Z,0.00
2022-08-03T16:49:53.858Z,0.00
2022-08-03T16:50:35.536Z,0.00
2022-08-03T16:51:40.327Z,0.00
2022-08-03T16:52:35.571Z,0.00
2022-08-03T16:54:05.177Z,0.00
2022-08-03T16:54:35.510Z,0.00
2022-08-03T16:55:43.232Z,0.00
2022-08-03T16:56:36.303Z,0.00
2022-08-03T16:57:57.828Z,0.00
2022-08-03T16:58:42.161Z,0.00
2022-08-03T16:59:36.454Z,0.00
2022-08-03T17:00:41.779Z,0.00
2022-08-03T17:01:35.691Z,0.00
2022-08-03T17:02:35.696Z,0.00
